createdAt,value
2019-05-07T00:00:34.632Z,0.00
2019-05-07T00:01:34.582Z,0.00
2019-05-07T00:02:34.570Z,0.00
2019-05-07T00:03:34.571Z,0.00
2019-05-07T00:04:34.550Z,0.00
2019-05-07T00:05:34.566Z,0.00
2019-05-07T00:06:34.556Z,0.00
2019-05-07T00:07:34.513Z,0.00
2019-05-07T00:08:34.511Z,0.00
2019-05-07T00:09:34.512Z,0.00
2019-05-07T00:10:34.489Z,0.00
2019-05-07T00:11:34.499Z,0.00
2019-05-07T00:12:34.461Z,0.00
2019-05-07T00:13:34.447Z,0.00
2019-05-07T00:14:34.746Z,0.00
2019-05-07T00:15:34.426Z,0.00
2019-05-07T00:16:34.425Z,0.00
2019-05-07T00:17:34.440Z,0.00
2019-05-07T00:18:34.398Z,0.00
2019-05-07T00:19:34.383Z,0.00
2019-05-07T00:20:34.378Z,0.00
2019-05-07T00:21:34.370Z,0.00
2019-05-07T00:22:34.395Z,0.00
2019-05-07T00:23:34.338Z,0.00
2019-05-07T00:24:34.333Z,0.00
2019-05-07T00:25:34.323Z,0.00
2019-05-07T00:26:34.315Z,0.00
2019-05-07T00:27:34.297Z,0.00
2019-05-07T00:28:34.326Z,0.00
2019-05-07T00:29:34.292Z,0.00
2019-05-07T00:30:34.265Z,0.00
2019-05-07T00:31:34.256Z,0.00
2019-05-07T00:32:34.268Z,0.00
2019-05-07T00:33:34.275Z,0.00
2019-05-07T00:34:34.237Z,0.00
2019-05-07T00:35:34.237Z,0.00
2019-05-07T00:36:34.203Z,0.00
2019-05-07T00:37:34.189Z,0.00
2019-05-07T00:38:34.206Z,0.00
2019-05-07T00:39:34.175Z,0.00
2019-05-07T00:40:34.173Z,0.00
2019-05-07T00:41:34.178Z,0.00
2019-05-07T00:42:34.135Z,0.00
2019-05-07T00:43:34.125Z,0.00
2019-05-07T00:44:34.152Z,0.00
2019-05-07T00:45:34.111Z,0.00
2019-05-07T00:46:34.120Z,0.00
2019-05-07T00:47:34.079Z,0.00
2019-05-07T00:48:34.070Z,0.00
2019-05-07T00:49:34.111Z,0.00
2019-05-07T00:50:34.064Z,0.00
2019-05-07T00:51:34.056Z,0.00
2019-05-07T00:52:34.041Z,0.00
2019-05-07T00:53:34.013Z,0.00
2019-05-07T00:54:34.035Z,0.00
2019-05-07T00:55:34.031Z,0.00
2019-05-07T00:56:34.004Z,0.00
2019-05-07T00:57:33.986Z,0.00
2019-05-07T00:58:33.961Z,0.00
2019-05-07T00:59:33.960Z,0.00
2019-05-07T01:00:33.975Z,0.00
2019-05-07T01:01:33.938Z,0.00
2019-05-07T01:02:33.926Z,0.00
2019-05-07T01:03:33.916Z,0.00
2019-05-07T01:04:33.896Z,0.00
2019-05-07T01:05:33.888Z,0.00
2019-05-07T01:06:33.899Z,0.00
2019-05-07T01:07:33.872Z,0.00
2019-05-07T01:08:33.857Z,0.00
2019-05-07T01:09:33.857Z,0.00
2019-05-07T01:10:33.862Z,0.00
2019-05-07T01:11:33.865Z,0.00
2019-05-07T01:12:33.815Z,0.00
2019-05-07T01:13:33.817Z,0.00
2019-05-07T01:14:33.796Z,0.00
2019-05-07T01:15:34.742Z,0.00
2019-05-07T01:16:33.775Z,0.00
2019-05-07T01:17:33.797Z,0.00
2019-05-07T01:18:33.746Z,0.00
2019-05-07T01:19:33.751Z,0.00
2019-05-07T01:20:33.741Z,0.00
2019-05-07T01:21:33.723Z,0.00
2019-05-07T01:22:33.769Z,0.00
2019-05-07T01:23:33.692Z,0.00
2019-05-07T01:24:33.690Z,0.00
2019-05-07T01:25:33.673Z,0.00
2019-05-07T01:26:33.667Z,0.00
2019-05-07T01:27:33.673Z,0.00
2019-05-07T01:28:33.679Z,0.00
2019-05-07T01:29:33.628Z,0.00
2019-05-07T01:30:33.630Z,0.00
2019-05-07T01:31:33.605Z,0.00
2019-05-07T01:32:33.604Z,0.00
2019-05-07T01:33:33.614Z,0.00
2019-05-07T01:34:33.571Z,0.00
2019-05-07T01:35:33.563Z,0.00
2019-05-07T01:36:33.561Z,0.00
2019-05-07T01:37:33.554Z,0.00
2019-05-07T01:38:33.581Z,0.00
2019-05-07T01:39:33.519Z,0.00
2019-05-07T01:40:33.513Z,0.00
2019-05-07T01:41:33.498Z,0.00
2019-05-07T01:42:36.478Z,0.00
2019-05-07T01:43:33.477Z,0.00
2019-05-07T01:44:33.513Z,0.00
2019-05-07T01:45:45.378Z,0.00
2019-05-07T01:46:33.449Z,0.00
2019-05-07T01:47:33.435Z,0.00
2019-05-07T01:48:33.436Z,0.00
2019-05-07T01:49:33.448Z,0.00
2019-05-07T01:50:33.438Z,0.00
2019-05-07T01:51:33.386Z,0.00
2019-05-07T01:52:33.382Z,0.00
2019-05-07T01:53:33.364Z,0.00
2019-05-07T01:54:33.629Z,0.00
2019-05-07T01:55:33.387Z,0.00
2019-05-07T01:56:33.348Z,0.00
2019-05-07T01:57:33.323Z,0.00
2019-05-07T01:58:33.460Z,0.00
2019-05-07T01:59:33.337Z,0.00
2019-05-07T02:00:33.335Z,0.00
2019-05-07T02:01:35.907Z,0.00
2019-05-07T02:02:33.290Z,0.00
2019-05-07T02:03:33.262Z,0.00
2019-05-07T02:04:33.250Z,0.00
2019-05-07T02:05:33.324Z,0.00
2019-05-07T02:06:33.253Z,0.00
2019-05-07T02:07:33.549Z,0.00
2019-05-07T02:08:33.245Z,0.00
2019-05-07T02:09:34.026Z,0.00
2019-05-07T02:10:33.185Z,0.00
2019-05-07T02:11:33.238Z,0.00
2019-05-07T02:12:33.160Z,0.00
2019-05-07T02:13:33.890Z,0.00
2019-05-07T02:14:33.195Z,0.00
2019-05-07T02:15:33.154Z,0.00
2019-05-07T02:16:33.190Z,0.00
2019-05-07T02:17:33.116Z,0.00
2019-05-07T02:18:33.094Z,0.00
2019-05-07T02:19:33.193Z,0.00
2019-05-07T02:20:33.113Z,0.00
2019-05-07T02:21:33.107Z,0.00
2019-05-07T02:22:33.075Z,0.00
2019-05-07T02:23:33.157Z,0.00
2019-05-07T02:24:33.930Z,0.00
2019-05-07T02:25:33.039Z,0.00
2019-05-07T02:26:33.009Z,0.00
2019-05-07T02:27:33.107Z,0.00
2019-05-07T02:28:33.125Z,0.00
2019-05-07T02:29:32.988Z,0.00
2019-05-07T02:30:35.047Z,0.00
2019-05-07T02:31:33.913Z,0.00
2019-05-07T02:32:33.691Z,0.00
2019-05-07T02:33:35.121Z,0.00
2019-05-07T02:34:34.190Z,0.00
2019-05-07T02:35:33.489Z,0.00
2019-05-07T02:36:33.981Z,0.00
2019-05-07T02:37:41.757Z,0.00
2019-05-07T02:38:33.904Z,0.00
2019-05-07T02:39:33.392Z,0.00
2019-05-07T02:40:33.895Z,0.00
2019-05-07T02:41:33.269Z,0.00
2019-05-07T02:42:33.673Z,0.00
2019-05-07T02:43:33.742Z,0.00
2019-05-07T02:44:32.859Z,0.00
2019-05-07T02:45:33.347Z,0.00
2019-05-07T02:46:36.377Z,0.00
2019-05-07T02:47:33.363Z,0.00
2019-05-07T02:48:33.391Z,0.00
2019-05-07T02:49:33.051Z,0.00
2019-05-07T02:50:33.133Z,0.00
2019-05-07T02:51:33.658Z,0.00
2019-05-07T02:52:32.747Z,0.00
2019-05-07T02:53:33.663Z,0.00
2019-05-07T02:54:33.027Z,0.00
2019-05-07T02:55:33.603Z,0.00
2019-05-07T02:56:33.539Z,0.00
2019-05-07T02:57:33.893Z,0.00
2019-05-07T02:58:33.244Z,0.00
2019-05-07T02:59:33.570Z,0.00
2019-05-07T03:00:33.506Z,0.00
2019-05-07T03:01:33.649Z,0.00
2019-05-07T03:02:33.186Z,0.00
2019-05-07T03:03:33.547Z,0.00
2019-05-07T03:04:33.370Z,0.00
2019-05-07T03:05:34.870Z,0.00
2019-05-07T03:06:33.997Z,0.00
2019-05-07T03:07:33.559Z,0.00
2019-05-07T03:08:33.346Z,0.00
2019-05-07T03:09:32.939Z,0.00
2019-05-07T03:10:33.923Z,0.00
2019-05-07T03:11:33.881Z,0.00
2019-05-07T03:12:33.558Z,0.00
2019-05-07T03:13:33.743Z,0.00
2019-05-07T03:14:32.509Z,0.00
2019-05-07T03:15:33.487Z,0.00
2019-05-07T03:16:43.731Z,0.00
2019-05-07T03:17:33.604Z,0.00
2019-05-07T03:18:33.530Z,0.00
2019-05-07T03:19:33.145Z,0.00
2019-05-07T03:20:33.450Z,0.00
2019-05-07T03:21:32.922Z,0.00
2019-05-07T03:22:33.768Z,4.00
2019-05-07T03:23:34.045Z,4.00
2019-05-07T03:24:34.247Z,0.00
2019-05-07T03:25:33.861Z,0.00
2019-05-07T03:26:34.146Z,0.00
2019-05-07T03:27:34.186Z,4.00
2019-05-07T03:28:33.609Z,4.00
2019-05-07T03:29:33.369Z,4.00
2019-05-07T03:30:35.882Z,0.00
2019-05-07T03:31:36.378Z,4.00
2019-05-07T03:32:38.115Z,4.00
2019-05-07T03:33:36.559Z,4.00
2019-05-07T03:34:36.840Z,4.00
2019-05-07T03:35:37.074Z,8.00
2019-05-07T03:36:35.448Z,4.00
2019-05-07T03:37:36.151Z,4.00
2019-05-07T03:38:33.581Z,4.00
2019-05-07T03:39:33.800Z,8.00
2019-05-07T03:40:32.988Z,4.00
2019-05-07T03:41:33.314Z,8.00
2019-05-07T03:42:33.539Z,8.00
2019-05-07T03:43:32.635Z,8.00
2019-05-07T03:44:33.876Z,12.00
2019-05-07T03:45:33.476Z,8.00
2019-05-07T03:46:33.655Z,8.00
2019-05-07T03:47:33.110Z,12.00
2019-05-07T03:48:33.273Z,12.00
2019-05-07T03:49:34.180Z,12.00
2019-05-07T03:50:33.772Z,16.00
2019-05-07T03:51:32.905Z,16.00
2019-05-07T03:52:33.527Z,16.00
2019-05-07T03:53:33.992Z,16.00
2019-05-07T03:54:33.963Z,16.00
2019-05-07T03:55:33.216Z,16.00
2019-05-07T03:56:33.044Z,20.00
2019-05-07T03:57:33.384Z,20.00
2019-05-07T03:58:33.961Z,20.00
2019-05-07T03:59:34.304Z,20.00
2019-05-07T04:00:33.240Z,24.00
2019-05-07T04:01:33.460Z,24.00
2019-05-07T04:02:33.234Z,28.00
2019-05-07T04:03:34.060Z,32.00
2019-05-07T04:04:33.161Z,28.00
2019-05-07T04:05:34.165Z,32.00
2019-05-07T04:06:33.196Z,36.00
2019-05-07T04:07:33.633Z,36.00
2019-05-07T04:08:33.409Z,40.00
2019-05-07T04:09:33.336Z,40.00
2019-05-07T04:10:33.750Z,40.00
2019-05-07T04:11:33.669Z,40.00
2019-05-07T04:12:34.310Z,44.00
2019-05-07T04:13:33.438Z,44.00
2019-05-07T04:14:34.585Z,44.00
2019-05-07T04:15:32.990Z,44.00
2019-05-07T04:16:33.249Z,48.00
2019-05-07T04:17:33.875Z,52.00
2019-05-07T04:18:33.028Z,52.00
2019-05-07T04:19:32.857Z,52.00
2019-05-07T04:20:33.389Z,52.00
2019-05-07T04:21:34.408Z,52.00
2019-05-07T04:22:34.316Z,56.00
2019-05-07T04:23:34.168Z,64.00
2019-05-07T04:24:33.296Z,68.00
2019-05-07T04:25:34.623Z,80.00
2019-05-07T04:26:33.910Z,88.00
2019-05-07T04:27:33.278Z,92.00
2019-05-07T04:28:33.422Z,92.00
2019-05-07T04:29:34.842Z,96.00
2019-05-07T04:30:33.049Z,96.00
2019-05-07T04:31:34.275Z,104.00
2019-05-07T04:32:33.429Z,108.00
2019-05-07T04:33:33.301Z,108.00
2019-05-07T04:34:33.696Z,108.00
2019-05-07T04:35:33.451Z,112.00
2019-05-07T04:36:34.231Z,116.00
2019-05-07T04:37:33.198Z,124.00
2019-05-07T04:38:33.431Z,124.00
2019-05-07T04:39:33.484Z,128.00
2019-05-07T04:40:33.810Z,128.00
2019-05-07T04:41:33.026Z,116.00
2019-05-07T04:42:33.304Z,100.00
2019-05-07T04:43:33.553Z,92.00
2019-05-07T04:44:33.298Z,96.00
2019-05-07T04:45:33.703Z,100.00
2019-05-07T04:46:33.423Z,100.00
2019-05-07T04:47:42.115Z,96.00
2019-05-07T04:48:34.040Z,96.00
2019-05-07T04:49:33.271Z,108.00
2019-05-07T04:50:39.463Z,116.00
2019-05-07T04:51:33.628Z,128.00
2019-05-07T04:52:33.592Z,132.00
2019-05-07T04:53:32.767Z,132.00
2019-05-07T04:54:32.934Z,128.00
2019-05-07T04:55:33.513Z,120.00
2019-05-07T04:56:33.670Z,116.00
2019-05-07T04:57:32.986Z,108.00
2019-05-07T04:58:33.904Z,108.00
2019-05-07T04:59:33.056Z,104.00
2019-05-07T05:00:33.559Z,100.00
2019-05-07T05:01:32.862Z,104.00
2019-05-07T05:02:32.545Z,120.00
2019-05-07T05:03:33.983Z,124.00
2019-05-07T05:04:34.940Z,128.00
2019-05-07T05:05:32.938Z,128.00
2019-05-07T05:06:32.963Z,136.00
2019-05-07T05:07:33.481Z,140.00
2019-05-07T05:08:32.537Z,144.00
2019-05-07T05:09:32.895Z,144.00
2019-05-07T05:10:33.741Z,144.00
2019-05-07T05:11:33.566Z,140.00
2019-05-07T05:12:32.641Z,124.00
2019-05-07T05:13:33.103Z,112.00
2019-05-07T05:14:33.849Z,104.00
2019-05-07T05:15:32.106Z,112.00
2019-05-07T05:16:32.769Z,128.00
2019-05-07T05:17:32.050Z,140.00
2019-05-07T05:18:32.972Z,156.00
2019-05-07T05:19:32.328Z,168.00
2019-05-07T05:20:33.481Z,172.00
2019-05-07T05:21:32.285Z,168.00
2019-05-07T05:22:31.775Z,176.00
2019-05-07T05:23:32.284Z,196.00
2019-05-07T05:24:32.924Z,228.00
2019-05-07T05:25:32.279Z,268.00
2019-05-07T05:26:32.528Z,324.00
2019-05-07T05:27:32.696Z,380.00
2019-05-07T05:28:32.336Z,404.00
2019-05-07T05:29:32.296Z,376.00
2019-05-07T05:30:32.705Z,328.00
2019-05-07T05:31:33.082Z,292.00
2019-05-07T05:32:32.482Z,280.00
2019-05-07T05:33:32.348Z,248.00
2019-05-07T05:34:32.940Z,204.00
2019-05-07T05:35:32.116Z,176.00
2019-05-07T05:36:32.997Z,156.00
2019-05-07T05:37:32.136Z,144.00
2019-05-07T05:38:32.868Z,140.00
2019-05-07T05:39:32.055Z,140.00
2019-05-07T05:40:31.966Z,152.00
2019-05-07T05:41:30.899Z,172.00
2019-05-07T05:42:32.963Z,184.00
2019-05-07T05:43:31.966Z,180.00
2019-05-07T05:44:31.998Z,172.00
2019-05-07T05:45:30.884Z,156.00
2019-05-07T05:46:31.961Z,144.00
2019-05-07T05:47:32.880Z,140.00
2019-05-07T05:48:33.123Z,136.00
2019-05-07T05:49:32.220Z,132.00
2019-05-07T05:50:33.138Z,128.00
2019-05-07T05:51:32.178Z,128.00
2019-05-07T05:52:32.732Z,132.00
2019-05-07T05:53:32.679Z,140.00
2019-05-07T05:54:31.824Z,140.00
2019-05-07T05:55:32.196Z,140.00
2019-05-07T05:56:32.434Z,140.00
2019-05-07T05:57:32.303Z,132.00
2019-05-07T05:58:32.508Z,120.00
2019-05-07T05:59:46.870Z,108.00
2019-05-07T06:00:32.827Z,88.00
2019-05-07T06:01:32.055Z,80.00
2019-05-07T06:02:32.413Z,76.00
2019-05-07T06:03:32.228Z,76.00
2019-05-07T06:04:32.777Z,76.00
2019-05-07T06:05:33.897Z,72.00
2019-05-07T06:06:32.593Z,68.00
2019-05-07T06:07:31.872Z,72.00
2019-05-07T06:08:32.471Z,72.00
2019-05-07T06:09:32.841Z,76.00
2019-05-07T06:10:32.883Z,72.00
2019-05-07T06:11:32.194Z,72.00
2019-05-07T06:12:32.604Z,64.00
2019-05-07T06:13:32.360Z,64.00
2019-05-07T06:14:32.892Z,56.00
2019-05-07T06:15:32.627Z,60.00
2019-05-07T06:16:32.757Z,64.00
2019-05-07T06:17:32.071Z,60.00
2019-05-07T06:18:32.581Z,64.00
2019-05-07T06:19:32.690Z,64.00
2019-05-07T06:20:32.106Z,60.00
2019-05-07T06:21:32.284Z,56.00
2019-05-07T06:22:32.920Z,52.00
2019-05-07T06:23:32.791Z,56.00
2019-05-07T06:24:31.796Z,64.00
2019-05-07T06:25:33.377Z,64.00
2019-05-07T06:26:31.925Z,68.00
2019-05-07T06:27:32.526Z,72.00
2019-05-07T06:28:32.845Z,80.00
2019-05-07T06:29:30.373Z,84.00
2019-05-07T06:30:30.376Z,88.00
2019-05-07T06:31:32.543Z,80.00
2019-05-07T06:32:32.004Z,76.00
2019-05-07T06:33:32.278Z,72.00
2019-05-07T06:34:30.356Z,76.00
2019-05-07T06:35:32.330Z,80.00
2019-05-07T06:36:32.698Z,84.00
2019-05-07T06:37:32.159Z,84.00
2019-05-07T06:38:31.964Z,88.00
2019-05-07T06:39:30.268Z,92.00
2019-05-07T06:40:32.140Z,92.00
2019-05-07T06:41:32.229Z,92.00
2019-05-07T06:42:30.245Z,88.00
2019-05-07T06:43:32.383Z,80.00
2019-05-07T06:44:32.022Z,76.00
2019-05-07T06:45:32.598Z,80.00
2019-05-07T06:46:32.174Z,84.00
2019-05-07T06:47:31.925Z,92.00
2019-05-07T06:48:39.205Z,96.00
2019-05-07T06:49:32.266Z,100.00
2019-05-07T06:50:32.538Z,104.00
2019-05-07T06:51:30.138Z,108.00
2019-05-07T06:52:31.957Z,116.00
2019-05-07T06:53:30.126Z,120.00
2019-05-07T06:54:32.120Z,124.00
2019-05-07T06:55:32.212Z,128.00
2019-05-07T06:56:32.414Z,132.00
2019-05-07T06:57:32.898Z,136.00
2019-05-07T06:58:30.058Z,144.00
2019-05-07T06:59:32.639Z,148.00
2019-05-07T07:00:31.941Z,148.00
2019-05-07T07:01:32.116Z,152.00
2019-05-07T07:02:30.021Z,152.00
2019-05-07T07:03:30.015Z,160.00
2019-05-07T07:04:29.994Z,160.00
2019-05-07T07:05:30.007Z,172.00
2019-05-07T07:06:32.075Z,180.00
2019-05-07T07:07:34.718Z,192.00
2019-05-07T07:08:32.512Z,212.00
2019-05-07T07:09:29.954Z,228.00
2019-05-07T07:10:32.092Z,252.00
2019-05-07T07:11:31.894Z,272.00
2019-05-07T07:12:29.909Z,292.00
2019-05-07T07:13:31.927Z,304.00
2019-05-07T07:14:29.885Z,300.00
2019-05-07T07:15:31.937Z,292.00
2019-05-07T07:16:29.913Z,276.00
2019-05-07T07:17:29.861Z,264.00
2019-05-07T07:18:32.078Z,252.00
2019-05-07T07:19:32.123Z,248.00
2019-05-07T07:20:29.818Z,244.00
2019-05-07T07:21:29.839Z,252.00
2019-05-07T07:22:31.870Z,260.00
2019-05-07T07:23:32.105Z,276.00
2019-05-07T07:24:29.778Z,288.00
2019-05-07T07:25:32.398Z,304.00
2019-05-07T07:26:29.843Z,312.00
2019-05-07T07:27:32.028Z,320.00
2019-05-07T07:28:29.747Z,328.00
2019-05-07T07:29:29.735Z,328.00
2019-05-07T07:30:29.717Z,320.00
2019-05-07T07:31:31.725Z,312.00
2019-05-07T07:32:31.722Z,312.00
2019-05-07T07:33:31.869Z,340.00
2019-05-07T07:34:29.680Z,376.00
2019-05-07T07:35:32.020Z,416.00
2019-05-07T07:36:31.911Z,456.00
2019-05-07T07:37:31.899Z,500.00
2019-05-07T07:38:29.631Z,536.00
2019-05-07T07:39:29.615Z,560.00
2019-05-07T07:40:29.621Z,592.00
2019-05-07T07:41:29.593Z,608.00
2019-05-07T07:42:31.883Z,620.00
2019-05-07T07:43:29.573Z,648.00
2019-05-07T07:44:29.569Z,680.00
2019-05-07T07:45:29.548Z,692.00
2019-05-07T07:46:29.581Z,712.00
2019-05-07T07:47:29.565Z,748.00
2019-05-07T07:48:31.900Z,788.00
2019-05-07T07:49:29.506Z,820.00
2019-05-07T07:50:29.494Z,828.00
2019-05-07T07:51:38.860Z,816.00
2019-05-07T07:52:32.360Z,812.00
2019-05-07T07:53:32.312Z,816.00
2019-05-07T07:54:31.909Z,812.00
2019-05-07T07:55:29.439Z,808.00
2019-05-07T07:56:29.427Z,812.00
2019-05-07T07:57:29.434Z,832.00
2019-05-07T07:58:31.541Z,844.00
2019-05-07T07:59:29.432Z,820.00
2019-05-07T08:00:30.135Z,800.00
2019-05-07T08:01:29.377Z,748.00
2019-05-07T08:02:29.363Z,732.00
2019-05-07T08:03:29.364Z,728.00
2019-05-07T08:04:29.402Z,660.00
2019-05-07T08:05:29.331Z,612.00
2019-05-07T08:06:29.372Z,616.00
2019-05-07T08:07:29.320Z,636.00
2019-05-07T08:08:29.300Z,616.00
2019-05-07T08:09:29.296Z,640.00
2019-05-07T08:10:29.295Z,664.00
2019-05-07T08:11:29.267Z,680.00
2019-05-07T08:12:29.253Z,740.00
2019-05-07T08:13:29.285Z,744.00
2019-05-07T08:14:29.233Z,692.00
2019-05-07T08:15:29.267Z,580.00
2019-05-07T08:16:29.210Z,452.00
2019-05-07T08:17:29.199Z,344.00
2019-05-07T08:18:29.269Z,288.00
2019-05-07T08:19:29.299Z,264.00
2019-05-07T08:20:29.177Z,264.00
2019-05-07T08:21:29.187Z,264.00
2019-05-07T08:22:29.144Z,280.00
2019-05-07T08:23:29.137Z,340.00
2019-05-07T08:24:29.183Z,360.00
2019-05-07T08:25:29.192Z,392.00
2019-05-07T08:26:29.154Z,432.00
2019-05-07T08:27:29.100Z,476.00
2019-05-07T08:28:29.083Z,528.00
2019-05-07T08:29:29.083Z,572.00
2019-05-07T08:30:29.061Z,600.00
2019-05-07T08:31:29.094Z,652.00
2019-05-07T08:32:29.058Z,720.00
2019-05-07T08:33:29.043Z,720.00
2019-05-07T08:34:29.018Z,776.00
2019-05-07T08:35:29.019Z,744.00
2019-05-07T08:36:29.000Z,852.00
2019-05-07T08:37:29.013Z,1004.00
2019-05-07T08:38:30.054Z,812.00
2019-05-07T08:39:28.985Z,984.00
2019-05-07T08:40:28.978Z,876.00
2019-05-07T08:41:28.934Z,764.00
2019-05-07T08:42:28.996Z,764.00
2019-05-07T08:43:28.943Z,748.00
2019-05-07T08:44:28.919Z,812.00
2019-05-07T08:45:28.984Z,848.00
2019-05-07T08:46:29.018Z,900.00
2019-05-07T08:47:28.874Z,944.00
2019-05-07T08:48:28.886Z,992.00
2019-05-07T08:49:37.047Z,1228.00
2019-05-07T08:50:28.898Z,880.00
2019-05-07T08:51:28.823Z,792.00
2019-05-07T08:52:28.812Z,728.00
2019-05-07T08:53:28.806Z,684.00
2019-05-07T08:54:28.818Z,668.00
2019-05-07T08:55:28.807Z,668.00
2019-05-07T08:56:28.819Z,628.00
2019-05-07T08:57:28.761Z,596.00
2019-05-07T08:58:28.768Z,552.00
2019-05-07T08:59:28.764Z,512.00
2019-05-07T09:00:28.724Z,496.00
2019-05-07T09:01:28.719Z,456.00
2019-05-07T09:02:28.785Z,420.00
2019-05-07T09:03:28.697Z,412.00
2019-05-07T09:04:28.685Z,440.00
2019-05-07T09:05:28.690Z,496.00
2019-05-07T09:06:28.660Z,904.00
2019-05-07T09:07:28.725Z,940.00
2019-05-07T09:08:28.715Z,972.00
2019-05-07T09:09:28.625Z,908.00
2019-05-07T09:10:28.655Z,740.00
2019-05-07T09:11:28.620Z,712.00
2019-05-07T09:12:28.604Z,760.00
2019-05-07T09:13:28.610Z,816.00
2019-05-07T09:14:28.571Z,880.00
2019-05-07T09:15:28.727Z,944.00
2019-05-07T09:16:28.584Z,988.00
2019-05-07T09:17:28.648Z,1256.00
2019-05-07T09:18:28.535Z,1180.00
2019-05-07T09:19:28.532Z,1344.00
2019-05-07T09:20:28.506Z,908.00
2019-05-07T09:21:28.612Z,864.00
2019-05-07T09:22:28.491Z,824.00
2019-05-07T09:23:28.473Z,808.00
2019-05-07T09:24:28.472Z,796.00
2019-05-07T09:25:28.527Z,756.00
2019-05-07T09:26:28.440Z,732.00
2019-05-07T09:27:28.551Z,672.00
2019-05-07T09:28:28.443Z,600.00
2019-05-07T09:29:28.407Z,564.00
2019-05-07T09:30:28.797Z,552.00
2019-05-07T09:31:28.427Z,572.00
2019-05-07T09:32:28.376Z,520.00
2019-05-07T09:33:28.453Z,512.00
2019-05-07T09:34:28.367Z,520.00
2019-05-07T09:35:28.341Z,540.00
2019-05-07T09:36:28.384Z,544.00
2019-05-07T09:37:28.441Z,552.00
2019-05-07T09:38:28.350Z,544.00
2019-05-07T09:39:28.391Z,540.00
2019-05-07T09:40:28.303Z,544.00
2019-05-07T09:41:28.279Z,560.00
2019-05-07T09:42:28.286Z,576.00
2019-05-07T09:43:28.257Z,568.00
2019-05-07T09:44:28.251Z,980.00
2019-05-07T09:45:28.340Z,652.00
2019-05-07T09:46:28.233Z,720.00
2019-05-07T09:47:28.244Z,676.00
2019-05-07T09:48:28.214Z,1000.00
2019-05-07T09:49:28.196Z,1032.00
2019-05-07T09:50:28.177Z,1048.00
2019-05-07T09:51:28.343Z,1068.00
2019-05-07T09:52:28.188Z,1140.00
2019-05-07T09:53:28.158Z,896.00
2019-05-07T09:54:28.158Z,1224.00
2019-05-07T09:55:28.127Z,1000.00
2019-05-07T09:56:28.167Z,1020.00
2019-05-07T09:57:31.346Z,968.00
2019-05-07T09:58:36.499Z,936.00
2019-05-07T09:59:28.097Z,944.00
2019-05-07T10:00:28.070Z,1344.00
2019-05-07T10:01:28.074Z,1336.00
2019-05-07T10:02:28.070Z,1064.00
2019-05-07T10:03:28.127Z,1096.00
2019-05-07T10:04:28.026Z,1068.00
2019-05-07T10:05:28.022Z,832.00
2019-05-07T10:06:28.004Z,812.00
2019-05-07T10:07:28.031Z,792.00
2019-05-07T10:08:27.982Z,744.00
2019-05-07T10:09:27.990Z,700.00
2019-05-07T10:10:28.118Z,660.00
2019-05-07T10:11:27.957Z,652.00
2019-05-07T10:12:27.936Z,648.00
2019-05-07T10:13:27.945Z,676.00
2019-05-07T10:14:27.918Z,684.00
2019-05-07T10:15:27.925Z,680.00
2019-05-07T10:16:28.030Z,684.00
2019-05-07T10:17:27.914Z,676.00
2019-05-07T10:18:27.914Z,664.00
2019-05-07T10:19:27.907Z,640.00
2019-05-07T10:20:27.854Z,616.00
2019-05-07T10:21:27.838Z,604.00
2019-05-07T10:22:27.890Z,632.00
2019-05-07T10:23:27.832Z,660.00
2019-05-07T10:24:27.840Z,700.00
2019-05-07T10:25:27.794Z,712.00
2019-05-07T10:26:27.790Z,676.00
2019-05-07T10:27:27.802Z,632.00
2019-05-07T10:28:27.766Z,628.00
2019-05-07T10:29:27.791Z,620.00
2019-05-07T10:30:27.742Z,608.00
2019-05-07T10:31:27.732Z,592.00
2019-05-07T10:32:27.730Z,588.00
2019-05-07T10:33:27.964Z,608.00
2019-05-07T10:34:27.760Z,648.00
2019-05-07T10:35:30.798Z,688.00
2019-05-07T10:36:27.683Z,704.00
2019-05-07T10:37:27.674Z,1032.00
2019-05-07T10:38:27.664Z,868.00
2019-05-07T10:39:27.655Z,1092.00
2019-05-07T10:40:27.659Z,1088.00
2019-05-07T10:41:27.621Z,828.00
2019-05-07T10:42:27.669Z,636.00
2019-05-07T10:43:27.642Z,920.00
2019-05-07T10:44:27.641Z,964.00
2019-05-07T10:45:27.584Z,988.00
2019-05-07T10:46:27.578Z,748.00
2019-05-07T10:47:27.593Z,876.00
2019-05-07T10:48:27.547Z,612.00
2019-05-07T10:49:27.534Z,548.00
2019-05-07T10:50:38.038Z,540.00
2019-05-07T10:51:27.520Z,596.00
2019-05-07T10:52:27.518Z,836.00
2019-05-07T10:53:27.488Z,892.00
2019-05-07T10:54:27.490Z,948.00
2019-05-07T10:55:27.533Z,944.00
2019-05-07T10:56:27.464Z,956.00
2019-05-07T10:57:27.486Z,936.00
2019-05-07T10:58:27.475Z,972.00
2019-05-07T10:59:27.480Z,984.00
2019-05-07T11:00:27.417Z,1000.00
2019-05-07T11:01:27.419Z,1016.00
2019-05-07T11:02:27.410Z,1020.00
2019-05-07T11:03:27.396Z,1048.00
2019-05-07T11:04:39.228Z,652.00
2019-05-07T11:05:28.392Z,648.00
2019-05-07T11:06:27.346Z,620.00
2019-05-07T11:07:27.348Z,608.00
2019-05-07T11:08:27.349Z,600.00
2019-05-07T11:09:27.337Z,600.00
2019-05-07T11:10:27.360Z,588.00
2019-05-07T11:11:27.346Z,584.00
2019-05-07T11:12:27.294Z,588.00
2019-05-07T11:13:27.282Z,616.00
2019-05-07T11:14:27.266Z,632.00
2019-05-07T11:15:27.288Z,864.00
2019-05-07T11:16:27.266Z,952.00
2019-05-07T11:17:27.236Z,668.00
2019-05-07T11:18:27.350Z,1040.00
2019-05-07T11:19:27.214Z,620.00
2019-05-07T11:20:27.201Z,1052.00
2019-05-07T11:21:27.234Z,856.00
2019-05-07T11:22:27.172Z,1152.00
2019-05-07T11:23:27.158Z,700.00
2019-05-07T11:24:27.175Z,632.00
2019-05-07T11:25:27.136Z,600.00
2019-05-07T11:26:27.138Z,576.00
2019-05-07T11:27:27.146Z,564.00
2019-05-07T11:28:27.153Z,548.00
2019-05-07T11:29:27.115Z,548.00
2019-05-07T11:30:28.073Z,548.00
2019-05-07T11:31:27.076Z,524.00
2019-05-07T11:32:27.068Z,504.00
2019-05-07T11:33:27.083Z,496.00
2019-05-07T11:34:27.076Z,496.00
2019-05-07T11:35:27.043Z,660.00
2019-05-07T11:36:27.031Z,996.00
2019-05-07T11:37:27.034Z,988.00
2019-05-07T11:38:27.009Z,984.00
2019-05-07T11:39:27.022Z,944.00
2019-05-07T11:40:26.976Z,936.00
2019-05-07T11:41:26.960Z,948.00
2019-05-07T11:42:26.970Z,928.00
2019-05-07T11:43:26.989Z,924.00
2019-05-07T11:44:26.989Z,916.00
2019-05-07T11:45:26.993Z,872.00
2019-05-07T11:46:26.913Z,808.00
2019-05-07T11:47:26.977Z,840.00
2019-05-07T11:48:26.902Z,912.00
2019-05-07T11:49:26.892Z,932.00
2019-05-07T11:50:26.890Z,924.00
2019-05-07T11:51:26.891Z,948.00
2019-05-07T11:52:26.844Z,936.00
2019-05-07T11:53:26.858Z,900.00
2019-05-07T11:54:26.817Z,928.00
2019-05-07T11:55:26.856Z,972.00
2019-05-07T11:56:26.816Z,956.00
2019-05-07T11:57:26.787Z,812.00
2019-05-07T11:58:26.776Z,716.00
2019-05-07T11:59:26.801Z,564.00
2019-05-07T12:00:26.788Z,500.00
2019-05-07T12:01:40.202Z,496.00
2019-05-07T12:02:27.733Z,512.00
2019-05-07T12:03:26.735Z,524.00
2019-05-07T12:04:27.952Z,912.00
2019-05-07T12:05:26.715Z,664.00
2019-05-07T12:06:26.691Z,608.00
2019-05-07T12:07:26.700Z,880.00
2019-05-07T12:08:39.314Z,532.00
2019-05-07T12:09:26.714Z,924.00
2019-05-07T12:10:26.672Z,964.00
2019-05-07T12:11:26.663Z,1004.00
2019-05-07T12:12:26.628Z,684.00
2019-05-07T12:13:26.621Z,684.00
2019-05-07T12:14:31.573Z,992.00
2019-05-07T12:15:27.609Z,608.00
2019-05-07T12:16:26.590Z,708.00
2019-05-07T12:17:26.586Z,596.00
2019-05-07T12:18:26.567Z,580.00
2019-05-07T12:19:26.558Z,568.00
2019-05-07T12:20:26.590Z,540.00
2019-05-07T12:21:26.521Z,492.00
2019-05-07T12:22:26.523Z,456.00
2019-05-07T12:23:26.499Z,428.00
2019-05-07T12:24:26.532Z,416.00
2019-05-07T12:25:26.481Z,392.00
2019-05-07T12:26:26.485Z,376.00
2019-05-07T12:27:26.489Z,360.00
2019-05-07T12:28:26.459Z,352.00
2019-05-07T12:29:26.437Z,344.00
2019-05-07T12:30:26.443Z,344.00
2019-05-07T12:31:26.457Z,352.00
2019-05-07T12:32:26.456Z,352.00
2019-05-07T12:33:26.395Z,356.00
2019-05-07T12:34:26.394Z,356.00
2019-05-07T12:35:26.373Z,356.00
2019-05-07T12:36:26.412Z,352.00
2019-05-07T12:37:26.344Z,348.00
2019-05-07T12:38:26.335Z,352.00
2019-05-07T12:39:26.329Z,348.00
2019-05-07T12:40:26.312Z,352.00
2019-05-07T12:41:26.334Z,356.00
2019-05-07T12:42:26.334Z,364.00
2019-05-07T12:43:26.279Z,376.00
2019-05-07T12:44:26.268Z,392.00